createdAt,value
2017-11-26T00:03:10.713Z,79.60
2017-11-26T00:08:06.458Z,78.80
2017-11-26T00:10:35.555Z,78.70
2017-11-26T00:13:03.183Z,78.20
2017-11-26T00:15:31.733Z,78.70
2017-11-26T00:17:59.412Z,79.00
2017-11-26T00:20:27.428Z,78.70
2017-11-26T00:22:55.599Z,78.90
2017-11-26T00:25:24.138Z,79.10
2017-11-26T00:27:52.595Z,79.40
2017-11-26T00:30:20.221Z,79.60
2017-11-26T00:32:48.861Z,79.40
2017-11-26T00:35:16.503Z,79.80
2017-11-26T00:37:44.120Z,80.10
2017-11-26T00:40:12.790Z,81.00
2017-11-26T00:42:40.440Z,80.70
2017-11-26T00:45:08.065Z,80.90
2017-11-26T00:47:35.772Z,80.50
2017-11-26T00:50:04.259Z,80.20
2017-11-26T00:52:31.892Z,80.00
2017-11-26T00:54:59.597Z,79.60
2017-11-26T00:57:27.220Z,79.70
2017-11-26T00:59:54.857Z,80.10
2017-11-26T01:02:23.348Z,79.90
2017-11-26T01:04:50.991Z,80.10
2017-11-26T01:07:18.620Z,80.00
2017-11-26T01:09:46.778Z,79.40
2017-11-26T01:12:14.406Z,80.50
2017-11-26T01:14:42.038Z,80.60
2017-11-26T01:17:10.744Z,80.60
2017-11-26T01:24:56.498Z,79.90
2017-11-26T01:27:24.172Z,78.80
2017-11-26T01:29:51.802Z,77.90
2017-11-26T01:32:19.445Z,77.70
2017-11-26T01:34:47.164Z,77.40
2017-11-26T01:37:14.803Z,78.40
2017-11-26T01:39:42.431Z,78.80
2017-11-26T01:42:10.105Z,78.80
2017-11-26T01:47:06.186Z,79.20
2017-11-26T01:49:33.888Z,78.90
2017-11-26T01:52:01.528Z,80.10
2017-11-26T01:54:29.974Z,80.00
2017-11-26T01:56:58.622Z,81.50
2017-11-26T01:59:26.253Z,82.30
2017-11-26T02:01:54.849Z,82.60
2017-11-26T02:04:22.544Z,82.60
2017-11-26T02:06:50.168Z,82.10
2017-11-26T02:09:17.802Z,82.10
2017-11-26T02:11:46.259Z,82.70
2017-11-26T02:14:13.891Z,82.70
2017-11-26T02:16:41.518Z,81.90
2017-11-26T02:19:10.162Z,83.50
2017-11-26T02:21:37.782Z,84.00
2017-11-26T02:24:05.430Z,84.40
2017-11-26T02:26:33.961Z,82.30
2017-11-26T02:29:02.427Z,79.90
2017-11-26T02:37:12.834Z,76.10
2017-11-26T02:39:40.472Z,72.70
2017-11-26T02:42:08.097Z,73.80
2017-11-26T02:44:35.801Z,75.40
2017-11-26T02:49:31.058Z,79.60
2017-11-26T02:51:58.747Z,82.30
2017-11-26T02:54:26.373Z,81.80
2017-11-26T02:56:54.016Z,81.40
2017-11-26T02:59:21.715Z,79.00
2017-11-26T03:01:49.346Z,80.20
2017-11-26T03:04:16.973Z,80.00
2017-11-26T03:09:13.233Z,79.80
2017-11-26T03:11:43.425Z,80.60
2017-11-26T03:16:38.050Z,81.40
2017-11-26T03:19:05.682Z,80.80
2017-11-26T03:21:33.358Z,81.70
2017-11-26T03:24:01.072Z,81.10
2017-11-26T03:26:28.621Z,81.80
2017-11-26T03:28:56.315Z,82.40
2017-11-26T03:31:23.963Z,83.00
2017-11-26T03:33:51.585Z,82.80
2017-11-26T03:36:19.265Z,83.00
2017-11-26T03:38:47.841Z,83.00
2017-11-26T03:41:15.462Z,82.20
2017-11-26T03:43:43.999Z,79.80
2017-11-26T03:46:12.132Z,79.40
2017-11-26T03:51:18.931Z,79.40
2017-11-26T03:53:46.564Z,78.70
2017-11-26T03:56:14.194Z,78.20
2017-11-26T03:58:41.875Z,79.00
2017-11-26T04:03:39.204Z,81.60
2017-11-26T04:06:06.902Z,81.00
2017-11-26T04:08:34.525Z,80.30
2017-11-26T04:11:02.976Z,79.90
2017-11-26T04:13:30.654Z,80.90
2017-11-26T04:15:58.279Z,79.70
2017-11-26T04:18:25.913Z,79.80
2017-11-26T04:20:53.584Z,78.90
2017-11-26T04:23:21.215Z,77.30
2017-11-26T04:25:48.844Z,76.60
2017-11-26T04:28:16.553Z,77.90
2017-11-26T04:30:44.189Z,77.50
2017-11-26T04:33:11.817Z,76.20
2017-11-26T04:35:39.503Z,77.30
2017-11-26T04:38:07.133Z,76.80
2017-11-26T04:40:34.768Z,78.20
2017-11-26T04:43:03.300Z,77.80
2017-11-26T04:45:30.934Z,78.10
2017-11-26T04:47:58.561Z,77.90
2017-11-26T04:50:26.248Z,78.40
2017-11-26T04:52:53.877Z,78.70
2017-11-26T04:55:21.543Z,78.60
2017-11-26T04:57:49.240Z,79.10
2017-11-26T05:00:16.863Z,79.30
2017-11-26T05:02:45.425Z,78.10
2017-11-26T05:05:13.102Z,78.30
2017-11-26T05:07:40.733Z,78.60
2017-11-26T05:10:08.350Z,78.00
2017-11-26T05:12:36.050Z,75.00
2017-11-26T05:15:03.677Z,74.20
2017-11-26T05:20:12.466Z,74.30
2017-11-26T05:22:40.102Z,74.00
2017-11-26T05:25:08.673Z,73.80
2017-11-26T05:27:36.376Z,74.10
2017-11-26T05:30:04.002Z,73.70
2017-11-26T05:32:31.637Z,72.50
2017-11-26T05:34:59.332Z,71.70
2017-11-26T05:37:27.910Z,72.10
2017-11-26T05:39:55.555Z,73.40
2017-11-26T05:42:23.240Z,74.10
2017-11-26T05:44:51.349Z,73.70
2017-11-26T05:47:18.984Z,72.40
2017-11-26T05:49:47.504Z,73.30
2017-11-26T05:54:43.709Z,75.50
2017-11-26T05:57:11.405Z,74.70
2017-11-26T06:02:06.659Z,75.40
2017-11-26T06:04:34.342Z,69.50
2017-11-26T06:07:01.983Z,71.30
2017-11-26T06:09:29.611Z,72.60
2017-11-26T06:14:25.866Z,76.30
2017-11-26T06:16:54.525Z,77.80
2017-11-26T06:19:22.203Z,75.80
2017-11-26T06:21:49.825Z,75.70
2017-11-26T06:24:17.463Z,75.20
2017-11-26T06:26:45.900Z,74.30
2017-11-26T06:29:13.510Z,75.40
2017-11-26T06:31:41.134Z,76.60
2017-11-26T06:34:08.808Z,78.00
2017-11-26T06:36:36.449Z,78.80
2017-11-26T06:39:04.075Z,78.30
2017-11-26T06:41:31.778Z,78.20
2017-11-26T06:44:00.803Z,78.20
2017-11-26T06:49:07.598Z,78.00
2017-11-26T06:51:35.232Z,78.90
2017-11-26T06:54:02.858Z,78.80
2017-11-26T06:58:58.225Z,78.30
2017-11-26T07:01:25.849Z,79.80
2017-11-26T07:03:53.539Z,81.60
2017-11-26T07:06:21.165Z,82.20
2017-11-26T07:08:48.787Z,81.70
2017-11-26T07:11:17.333Z,80.40
2017-11-26T07:13:44.970Z,80.70
2017-11-26T07:16:13.429Z,80.30
2017-11-26T07:18:41.113Z,80.20
2017-11-26T07:21:08.764Z,80.20
2017-11-26T07:23:36.394Z,79.50
2017-11-26T07:26:04.081Z,79.80
2017-11-26T07:30:59.370Z,79.80
2017-11-26T07:33:27.054Z,80.80
2017-11-26T07:38:22.297Z,80.70
2017-11-26T07:40:49.998Z,80.90
2017-11-26T07:43:20.785Z,80.00
2017-11-26T07:45:48.415Z,80.20
2017-11-26T07:48:16.097Z,80.00
2017-11-26T07:55:54.741Z,77.80
2017-11-26T08:00:50.026Z,78.40
2017-11-26T08:03:17.767Z,77.90
2017-11-26T08:05:45.403Z,78.40
2017-11-26T08:08:13.031Z,77.90
2017-11-26T08:10:41.557Z,78.00
2017-11-26T08:13:10.016Z,78.30
2017-11-26T08:15:38.512Z,78.30
2017-11-26T08:18:07.022Z,78.20
2017-11-26T08:20:34.676Z,79.00
2017-11-26T08:23:03.128Z,78.10
2017-11-26T08:25:30.838Z,78.20
2017-11-26T08:27:59.289Z,78.00
2017-11-26T08:30:26.946Z,76.30
2017-11-26T08:32:54.623Z,76.60
2017-11-26T08:35:22.243Z,76.70
2017-11-26T08:37:50.809Z,77.80
2017-11-26T08:40:18.509Z,78.10
2017-11-26T08:42:46.966Z,77.70
2017-11-26T08:45:14.591Z,77.90
2017-11-26T08:47:42.287Z,78.10
2017-11-26T08:50:09.934Z,77.70
2017-11-26T08:52:37.551Z,76.00
2017-11-26T08:55:05.238Z,77.50
2017-11-26T08:57:32.872Z,78.20
2017-11-26T09:00:00.505Z,78.30
2017-11-26T09:02:28.551Z,76.10
2017-11-26T09:10:19.157Z,70.40
2017-11-26T09:12:46.853Z,69.60
2017-11-26T09:15:14.487Z,72.80
2017-11-26T09:20:09.813Z,71.60
2017-11-26T09:22:37.468Z,72.00
2017-11-26T09:27:32.838Z,73.10
2017-11-26T09:30:00.479Z,74.40
2017-11-26T09:32:28.094Z,74.50
2017-11-26T09:34:55.796Z,73.60
2017-11-26T09:37:23.428Z,73.50
2017-11-26T09:39:51.041Z,72.50
2017-11-26T09:42:18.735Z,72.70
2017-11-26T09:44:46.355Z,76.00
2017-11-26T09:47:13.990Z,72.30
2017-11-26T09:49:41.699Z,75.20
2017-11-26T09:52:09.325Z,71.90
2017-11-26T09:54:36.963Z,70.90
2017-11-26T09:57:04.652Z,71.10
2017-11-26T09:59:32.270Z,61.60
2017-11-26T10:02:00.190Z,60.30
2017-11-26T10:04:28.772Z,58.50
2017-11-26T10:06:56.389Z,55.90
2017-11-26T10:09:24.005Z,60.90
2017-11-26T10:11:51.687Z,61.90
2017-11-26T10:14:19.323Z,57.00
2017-11-26T10:16:46.943Z,52.10
2017-11-26T10:19:14.636Z,51.80
2017-11-26T10:21:42.258Z,55.70
2017-11-26T10:24:10.634Z,53.80
2017-11-26T10:26:38.329Z,57.70
2017-11-26T10:29:05.949Z,51.10
2017-11-26T10:31:33.562Z,53.30
2017-11-26T10:36:42.153Z,55.40
2017-11-26T10:39:09.837Z,52.50
2017-11-26T10:41:37.526Z,50.50
2017-11-26T10:44:05.181Z,49.50
2017-11-26T10:46:32.757Z,47.90
2017-11-26T10:49:00.440Z,54.50
2017-11-26T10:51:28.061Z,50.30
2017-11-26T10:53:56.522Z,50.00
2017-11-26T10:56:24.192Z,44.50
2017-11-26T10:58:51.820Z,46.50
2017-11-26T11:01:19.807Z,47.60
2017-11-26T11:03:47.507Z,46.40
2017-11-26T11:06:15.120Z,51.30
2017-11-26T11:08:42.752Z,51.00
2017-11-26T11:11:11.334Z,53.80
2017-11-26T11:16:06.590Z,52.50
2017-11-26T11:18:34.246Z,54.70
2017-11-26T11:21:02.790Z,55.60
2017-11-26T11:23:30.269Z,56.80
2017-11-26T11:25:57.977Z,49.80
2017-11-26T11:28:25.601Z,57.60
2017-11-26T11:30:53.220Z,61.20
2017-11-26T11:33:20.925Z,63.40
2017-11-26T11:35:48.545Z,64.90
2017-11-26T11:38:16.160Z,61.70
2017-11-26T11:40:43.836Z,58.70
2017-11-26T11:43:11.469Z,58.80
2017-11-26T11:45:39.092Z,56.50
2017-11-26T11:50:48.857Z,57.50
2017-11-26T11:53:16.545Z,56.60
2017-11-26T12:00:43.578Z,56.30
2017-11-26T12:03:11.205Z,57.40
2017-11-26T12:05:38.828Z,55.70
2017-11-26T12:08:06.533Z,57.20
2017-11-26T12:10:34.169Z,56.50
2017-11-26T12:13:01.802Z,57.10
2017-11-26T12:15:29.487Z,56.60
2017-11-26T12:17:57.116Z,58.00
2017-11-26T12:20:24.745Z,58.30
2017-11-26T12:22:52.835Z,56.90
2017-11-26T12:25:20.456Z,54.40
2017-11-26T12:27:48.071Z,55.50
2017-11-26T12:30:15.780Z,56.50
2017-11-26T12:32:43.406Z,56.20
2017-11-26T12:35:11.035Z,57.80
2017-11-26T12:37:38.733Z,57.30
2017-11-26T12:40:06.368Z,54.80
2017-11-26T12:42:33.991Z,53.40
2017-11-26T12:45:01.677Z,52.70
2017-11-26T12:49:56.928Z,51.80
2017-11-26T12:52:24.588Z,53.60
2017-11-26T12:54:52.207Z,54.50
2017-11-26T12:57:19.826Z,52.90
2017-11-26T12:59:47.532Z,51.60
2017-11-26T13:02:15.145Z,51.90
2017-11-26T13:04:42.768Z,55.00
2017-11-26T13:07:10.449Z,51.30
2017-11-26T13:09:38.091Z,50.80
2017-11-26T13:14:47.819Z,50.70
2017-11-26T13:17:15.446Z,50.30
2017-11-26T13:19:43.069Z,50.50
2017-11-26T13:22:10.758Z,50.60
2017-11-26T13:24:38.385Z,49.20
2017-11-26T13:27:06.006Z,50.60
2017-11-26T13:29:33.675Z,51.00
2017-11-26T13:32:01.308Z,50.70
2017-11-26T13:34:28.929Z,51.40
2017-11-26T13:36:56.626Z,50.80
2017-11-26T13:39:24.253Z,52.50
2017-11-26T13:41:51.883Z,51.10
2017-11-26T13:46:47.175Z,48.80
2017-11-26T13:49:14.812Z,49.90
2017-11-26T13:51:42.506Z,51.90
2017-11-26T13:54:10.128Z,50.00
2017-11-26T13:56:38.276Z,51.10
2017-11-26T13:59:06.282Z,49.30
2017-11-26T14:01:33.715Z,48.90
2017-11-26T14:04:01.340Z,50.80
2017-11-26T14:06:29.011Z,49.90
2017-11-26T14:08:56.650Z,49.70
2017-11-26T14:11:24.277Z,50.90
2017-11-26T14:13:51.972Z,51.10
2017-11-26T14:16:19.863Z,51.40
2017-11-26T14:18:48.011Z,50.60
2017-11-26T14:21:15.615Z,52.20
2017-11-26T14:23:43.242Z,51.90
2017-11-26T14:26:10.866Z,52.90
2017-11-26T14:28:38.577Z,54.70
2017-11-26T14:31:06.197Z,56.10
2017-11-26T14:36:12.992Z,57.20
2017-11-26T14:38:40.616Z,56.70
2017-11-26T14:41:08.249Z,55.80
2017-11-26T14:43:35.921Z,53.60
2017-11-26T14:46:03.540Z,54.80
2017-11-26T14:48:31.161Z,54.10
2017-11-26T14:50:59.080Z,55.40
2017-11-26T14:55:54.429Z,56.20
2017-11-26T14:58:22.108Z,55.90
2017-11-26T15:05:57.412Z,57.60
2017-11-26T15:08:25.035Z,58.70
2017-11-26T15:10:52.724Z,58.60
2017-11-26T15:13:20.381Z,58.90
2017-11-26T15:15:48.007Z,59.10
2017-11-26T15:18:18.779Z,57.80
2017-11-26T15:20:46.459Z,57.30
2017-11-26T15:23:15.045Z,59.10
2017-11-26T15:25:43.680Z,60.70
2017-11-26T15:28:11.300Z,61.60
2017-11-26T15:30:38.922Z,59.50
2017-11-26T15:35:48.306Z,59.80
2017-11-26T15:40:43.616Z,59.40
2017-11-26T15:43:11.223Z,58.90
2017-11-26T15:45:38.896Z,58.40
2017-11-26T15:48:06.521Z,58.40
2017-11-26T15:50:34.139Z,59.80
2017-11-26T15:53:01.840Z,61.30
2017-11-26T15:55:29.469Z,63.50
2017-11-26T15:57:57.923Z,63.10
2017-11-26T16:00:25.597Z,63.50
2017-11-26T16:02:53.226Z,63.50
2017-11-26T16:05:20.836Z,63.30
2017-11-26T16:10:17.078Z,64.30
2017-11-26T16:12:48.314Z,63.00
2017-11-26T16:15:15.440Z,62.80
2017-11-26T16:17:43.057Z,62.60
2017-11-26T16:20:10.679Z,63.00
2017-11-26T16:22:38.380Z,63.80
2017-11-26T16:25:06.876Z,63.00
2017-11-26T16:27:34.514Z,64.10
2017-11-26T16:30:02.195Z,65.70
2017-11-26T16:32:29.810Z,65.80
2017-11-26T16:34:57.440Z,66.70
2017-11-26T16:37:25.244Z,68.40
2017-11-26T16:39:52.887Z,66.90
2017-11-26T16:45:01.669Z,67.70
2017-11-26T16:47:29.392Z,67.30
2017-11-26T16:49:56.903Z,67.80
2017-11-26T16:52:24.577Z,68.80
2017-11-26T16:54:52.203Z,68.90
2017-11-26T16:57:19.837Z,66.60
2017-11-26T16:59:47.505Z,66.00
2017-11-26T17:02:15.132Z,66.70
2017-11-26T17:04:42.745Z,65.40
2017-11-26T17:07:10.427Z,65.70
2017-11-26T17:09:38.052Z,66.30
2017-11-26T17:12:05.678Z,65.50
2017-11-26T17:14:33.380Z,65.80
2017-11-26T17:17:00.998Z,65.10
2017-11-26T17:19:28.626Z,65.40
2017-11-26T17:21:56.289Z,65.30
2017-11-26T17:24:23.916Z,66.50
2017-11-26T17:26:51.534Z,66.30
2017-11-26T17:29:19.213Z,66.00
2017-11-26T17:31:46.824Z,65.60
2017-11-26T17:34:15.289Z,64.90
2017-11-26T17:36:43.003Z,65.40
2017-11-26T17:39:10.891Z,66.10
2017-11-26T17:41:39.334Z,65.70
2017-11-26T17:44:07.033Z,64.90
2017-11-26T17:49:02.291Z,65.30
2017-11-26T17:51:29.980Z,65.90
2017-11-26T17:53:57.597Z,67.10
2017-11-26T17:56:25.224Z,67.30
2017-11-26T18:01:20.561Z,67.20
2017-11-26T18:03:48.190Z,66.90
2017-11-26T18:06:15.887Z,68.30
2017-11-26T18:11:22.669Z,67.10
2017-11-26T18:13:51.079Z,65.50
2017-11-26T18:16:19.470Z,66.10
2017-11-26T18:18:47.598Z,67.10
2017-11-26T18:21:15.214Z,67.50
2017-11-26T18:23:42.847Z,67.00
2017-11-26T18:26:10.540Z,66.60
2017-11-26T18:28:39.106Z,67.40
2017-11-26T18:31:06.734Z,68.60
2017-11-26T18:33:35.237Z,68.50
2017-11-26T18:36:02.865Z,68.00
2017-11-26T18:38:30.508Z,67.70
2017-11-26T18:40:58.188Z,67.80
2017-11-26T18:43:26.355Z,67.70
2017-11-26T18:45:54.972Z,67.90
2017-11-26T18:48:22.662Z,70.00
2017-11-26T18:53:31.429Z,71.00
2017-11-26T18:58:26.679Z,69.90
2017-11-26T19:00:54.829Z,69.80
2017-11-26T19:03:22.470Z,69.20
2017-11-26T19:08:17.807Z,68.30
2017-11-26T19:10:45.416Z,69.00
2017-11-26T19:13:13.526Z,69.20
2017-11-26T19:18:09.374Z,69.50
2017-11-26T19:20:37.044Z,69.00
2017-11-26T19:23:04.750Z,68.10
2017-11-26T19:25:32.364Z,68.70
2017-11-26T19:27:59.989Z,68.70
2017-11-26T19:30:27.696Z,69.10
2017-11-26T19:32:55.342Z,68.80
2017-11-26T19:35:23.074Z,68.60
2017-11-26T19:40:18.470Z,68.90
2017-11-26T19:42:46.079Z,69.00
2017-11-26T19:45:13.786Z,68.50
2017-11-26T19:47:41.421Z,69.30
2017-11-26T19:50:09.082Z,69.20
2017-11-26T19:52:36.786Z,68.70
2017-11-26T19:55:04.446Z,70.20
2017-11-26T19:57:32.085Z,70.00
2017-11-26T19:59:59.837Z,71.40
2017-11-26T20:02:27.479Z,70.50
2017-11-26T20:04:55.432Z,73.20
2017-11-26T20:10:04.558Z,71.30
2017-11-26T20:12:32.622Z,70.40
2017-11-26T20:15:00.828Z,70.40
2017-11-26T20:17:28.457Z,70.30
2017-11-26T20:19:56.140Z,71.20
2017-11-26T20:22:23.798Z,69.70
2017-11-26T20:27:19.679Z,69.30
2017-11-26T20:29:47.344Z,69.80
2017-11-26T20:32:14.961Z,69.30
2017-11-26T20:34:43.500Z,70.00
2017-11-26T20:37:11.124Z,70.50
2017-11-26T20:39:39.583Z,71.20
2017-11-26T20:42:07.322Z,70.40
2017-11-26T20:44:34.977Z,70.40
2017-11-26T20:47:02.667Z,70.60
2017-11-26T20:51:58.070Z,71.60
2017-11-26T20:54:26.047Z,70.80
2017-11-26T20:56:53.812Z,71.10
2017-11-26T20:59:21.379Z,71.00
2017-11-26T21:01:49.025Z,71.00
2017-11-26T21:04:17.283Z,72.10
2017-11-26T21:06:44.832Z,71.00
2017-11-26T21:09:12.473Z,70.60
2017-11-26T21:11:40.496Z,71.00
2017-11-26T21:14:08.049Z,71.00
2017-11-26T21:19:03.698Z,74.30
2017-11-26T21:24:10.961Z,70.60
2017-11-26T21:26:38.482Z,72.10
2017-11-26T21:29:06.115Z,70.10
2017-11-26T21:31:33.798Z,69.40
2017-11-26T21:34:01.428Z,69.80
2017-11-26T21:36:29.055Z,70.30
2017-11-26T21:38:56.749Z,70.50
2017-11-26T21:41:24.381Z,70.80
2017-11-26T21:43:52.020Z,70.50
2017-11-26T21:46:19.682Z,70.70
2017-11-26T21:48:47.316Z,70.20
2017-11-26T21:51:14.930Z,69.90
2017-11-26T21:58:41.956Z,70.90
2017-11-26T22:01:09.632Z,70.90
2017-11-26T22:03:37.244Z,70.70
2017-11-26T22:06:04.860Z,70.50
2017-11-26T22:08:32.621Z,70.10
2017-11-26T22:11:00.229Z,69.90
2017-11-26T22:13:27.858Z,70.20
2017-11-26T22:15:55.514Z,71.70
2017-11-26T22:18:23.130Z,71.00
2017-11-26T22:20:51.539Z,70.80
2017-11-26T22:23:19.226Z,70.60
2017-11-26T22:28:17.600Z,72.00
2017-11-26T22:35:57.374Z,73.80
2017-11-26T22:38:27.864Z,74.20
2017-11-26T22:40:54.136Z,73.60
2017-11-26T22:43:25.296Z,72.20
2017-11-26T22:48:20.651Z,73.60
2017-11-26T22:50:50.846Z,74.40
2017-11-26T22:53:19.923Z,74.70
2017-11-26T22:55:48.445Z,74.40
2017-11-26T22:58:16.164Z,74.50
2017-11-26T23:03:11.398Z,73.60
2017-11-26T23:05:39.083Z,73.70
2017-11-26T23:08:06.711Z,74.40
2017-11-26T23:10:34.331Z,74.00
2017-11-26T23:13:02.030Z,73.80
2017-11-26T23:15:29.661Z,72.50
2017-11-26T23:17:57.281Z,72.00
2017-11-26T23:20:25.225Z,72.40
2017-11-26T23:22:52.857Z,72.20
2017-11-26T23:25:20.489Z,72.70
2017-11-26T23:27:48.187Z,72.20
2017-11-26T23:30:16.766Z,73.00
2017-11-26T23:32:44.394Z,73.10
2017-11-26T23:35:12.073Z,72.30
2017-11-26T23:37:39.700Z,73.30
2017-11-26T23:40:07.333Z,73.20
2017-11-26T23:42:35.037Z,72.60
2017-11-26T23:45:02.657Z,72.70
2017-11-26T23:47:30.282Z,72.70
2017-11-26T23:49:57.960Z,72.30
2017-11-26T23:54:53.594Z,71.80
2017-11-26T23:57:21.287Z,72.00
